Time;durP1;ratioP1;P1;durP2;ratioP2;P2;SDS_P1;SDS_P2;PMS_P1;PMS_P2;Temp;Humidity;BMP_temperature;BMP_pressure;BME280_temperature;BME280_humidity;BME280_pressure;Samples;Min_cycle;Max_cycle;Signal;HPM_P1;HPM_P2
2022/11/17 00:00:16;;;;;;;2.03;0.80;;;12.00;99.90;;;;;;5053038;28;20212;-93
2022/11/17 00:02:45;;;;;;;0.77;0.70;;;12.00;99.90;;;;;;5054828;28;20671;-94
2022/11/17 00:05:12;;;;;;;1.57;0.93;;;12.00;99.90;;;;;;5054743;28;20235;-93
2022/11/17 00:07:38;;;;;;;2.27;0.87;;;12.10;99.90;;;;;;5055008;28;20648;-93
2022/11/17 00:10:06;;;;;;;2.00;0.70;;;12.10;99.90;;;;;;5054607;28;20610;-94
2022/11/17 00:15:17;;;;;;;1.93;0.93;;;12.10;99.90;;;;;;5055074;28;20243;-93
2022/11/17 00:17:47;;;;;;;2.13;1.10;;;12.10;99.90;;;;;;5054663;28;20650;-91
2022/11/17 00:23:00;;;;;;;7.43;1.30;;;12.20;99.90;;;;;;5054642;28;20605;-94
2022/11/17 00:25:27;;;;;;;2.97;1.20;;;12.20;99.90;;;;;;5054163;28;20643;-92
2022/11/17 00:27:53;;;;;;;3.13;0.93;;;12.10;99.90;;;;;;5055132;28;20639;-92
2022/11/17 00:35:52;;;;;;;2.70;0.90;;;12.20;99.90;;;;;;5054038;28;20605;-93
2022/11/17 00:38:19;;;;;;;6.83;1.37;;;12.20;99.90;;;;;;5054281;28;20212;-93
2022/11/17 00:40:46;;;;;;;4.03;1.10;;;12.10;99.90;;;;;;5054236;28;20216;-93
2022/11/17 00:43:12;;;;;;;6.70;1.47;;;12.10;99.90;;;;;;5053907;28;20216;-91
2022/11/17 00:45:39;;;;;;;4.50;1.73;;;12.00;99.90;;;;;;5054106;28;20598;-93
2022/11/17 00:48:08;;;;;;;5.57;1.40;;;12.10;99.90;;;;;;5054116;28;20671;-92
2022/11/17 00:50:35;;;;;;;4.57;1.43;;;12.10;99.90;;;;;;5054147;28;20212;-92
2022/11/17 00:53:01;;;;;;;6.07;2.07;;;12.10;99.90;;;;;;5054215;28;20212;-94
2022/11/17 00:55:28;;;;;;;9.50;1.77;;;12.20;99.90;;;;;;5053931;28;20212;-92
2022/11/17 00:57:55;;;;;;;7.13;2.10;;;12.00;99.90;;;;;;5054321;28;20206;-93
2022/11/17 01:00:22;;;;;;;6.77;1.80;;;12.00;99.90;;;;;;5054245;28;20545;-92
2022/11/17 01:02:49;;;;;;;6.57;1.70;;;12.00;99.90;;;;;;5054544;28;20299;-93
2022/11/17 01:05:17;;;;;;;7.87;1.90;;;12.00;99.90;;;;;;5053498;28;20240;-92
2022/11/17 01:07:46;;;;;;;5.57;1.67;;;12.00;99.90;;;;;;5053889;28;20208;-92
2022/11/17 01:10:13;;;;;;;6.57;2.77;;;12.00;99.90;;;;;;5053444;28;20236;-92
2022/11/17 01:12:40;;;;;;;8.60;1.97;;;12.00;99.90;;;;;;5053683;28;20608;-92
2022/11/17 01:15:08;;;;;;;5.90;2.27;;;12.00;99.90;;;;;;5054123;28;20210;-92
2022/11/17 01:17:35;;;;;;;12.27;2.90;;;12.00;99.90;;;;;;5053885;28;20545;-92
2022/11/17 01:20:02;;;;;;;8.90;2.87;;;12.10;99.90;;;;;;5053888;28;20200;-92
2022/11/17 01:22:30;;;;;;;9.50;2.67;;;12.10;99.90;;;;;;5053786;28;20638;-92
2022/11/17 01:24:57;;;;;;;16.47;3.47;;;12.10;99.90;;;;;;5036400;28;20209;-92
2022/11/17 01:27:24;;;;;;;7.03;2.60;;;12.10;99.90;;;;;;5054049;28;20209;-92
2022/11/17 01:29:52;;;;;;;11.27;3.03;;;12.10;99.90;;;;;;5053454;28;20236;-92
2022/11/17 01:32:20;;;;;;;11.13;3.10;;;12.20;99.90;;;;;;5053878;28;20209;-91
2022/11/17 01:34:47;;;;;;;8.00;2.40;;;12.20;99.90;;;;;;5053757;28;20206;-91
2022/11/17 01:37:20;;;;;;;7.07;2.40;;;12.20;99.90;;;;;;5057007;28;20212;-92
2022/11/17 01:39:49;;;;;;;9.97;2.03;;;12.20;99.90;;;;;;5057542;28;20217;-92
2022/11/17 01:42:18;;;;;;;9.93;2.17;;;12.20;99.90;;;;;;5058241;28;20232;-90
2022/11/17 01:44:59;;;;;;;9.33;2.20;;;12.30;99.90;;;;;;5057646;28;20243;-89
2022/11/17 01:47:39;;;;;;;6.67;1.53;;;12.30;99.90;;;;;;5057372;28;20305;-90
2022/11/17 01:50:12;;;;;;;5.57;2.13;;;12.30;99.90;;;;;;5057638;28;20240;-92
2022/11/17 01:52:40;;;;;;;8.07;2.10;;;12.30;99.90;;;;;;5057817;28;20201;-92
2022/11/17 01:55:10;;;;;;;9.13;2.30;;;12.30;99.90;;;;;;5057804;28;20213;-92
2022/11/17 01:57:42;;;;;;;8.47;2.20;;;12.30;99.90;;;;;;5057156;28;20222;-91
2022/11/17 02:00:11;;;;;;;8.90;2.40;;;12.30;99.90;;;;;;5057341;28;20691;-92
2022/11/17 02:02:40;;;;;;;11.73;2.80;;;12.30;99.90;;;;;;5057470;28;20205;-92
2022/11/17 02:05:19;;;;;;;8.13;2.07;;;12.30;99.90;;;;;;5057027;28;20239;-92
2022/11/17 02:07:47;;;;;;;13.40;3.38;;;12.20;99.90;;;;;;5054450;28;20437;-92
2022/11/17 02:10:15;;;;;;;12.07;2.37;;;12.30;99.90;;;;;;5055015;28;20237;-92
2022/11/17 02:12:43;;;;;;;6.57;1.90;;;12.40;99.90;;;;;;5052963;28;20687;-92
2022/11/17 02:15:10;;;;;;;11.03;2.03;;;12.30;99.90;;;;;;5055105;28;20657;-91
2022/11/17 02:17:40;;;;;;;13.17;2.60;;;12.20;99.90;;;;;;5052679;28;20198;-91
2022/11/17 02:20:11;;;;;;;11.50;2.60;;;12.20;99.90;;;;;;5053144;28;20213;-92
2022/11/17 02:23:04;;;;;;;10.90;2.80;;;12.10;99.90;;;;;;5056899;28;20205;-92
2022/11/17 02:25:52;;;;;;;11.20;2.40;;;12.00;99.90;;;;;;5056477;28;20576;-91
2022/11/17 02:28:22;;;;;;;11.63;2.37;;;12.00;99.90;;;;;;5056536;28;20205;-91
2022/11/17 02:31:06;;;;;;;11.27;2.43;;;11.90;99.90;;;;;;5056408;28;20228;-91
2022/11/17 02:33:43;;;;;;;15.20;3.40;;;11.90;99.90;;;;;;5055639;28;20480;-92
2022/11/17 02:36:17;;;;;;;12.27;2.57;;;12.00;99.90;;;;;;5056817;28;20211;-91
2022/11/17 02:38:54;;;;;;;8.87;2.20;;;11.90;99.90;;;;;;5056332;28;20209;-92
2022/11/17 02:41:26;;;;;;;9.00;2.47;;;11.90;99.90;;;;;;5056222;28;20216;-91
2022/11/17 02:44:04;;;;;;;8.10;2.17;;;11.90;99.90;;;;;;5056018;28;20216;-91
2022/11/17 02:46:39;;;;;;;6.97;2.00;;;11.90;99.90;;;;;;5056057;28;20220;-91
2022/11/17 02:49:11;;;;;;;7.93;2.00;;;11.90;99.90;;;;;;5055165;28;20259;-90
2022/11/17 02:51:39;;;;;;;11.27;2.60;;;11.80;99.90;;;;;;5056282;28;20208;-91
2022/11/17 02:54:08;;;;;;;9.37;2.00;;;11.80;99.90;;;;;;5056115;28;20205;-92
2022/11/17 02:56:39;;;;;;;6.87;2.13;;;11.80;99.90;;;;;;5056148;28;20205;-91
2022/11/17 02:59:08;;;;;;;8.30;1.83;;;11.90;99.90;;;;;;5038749;28;20212;-91
2022/11/17 03:02:03;;;;;;;4.57;1.80;;;11.80;99.90;;;;;;5042299;28;20198;-92
2022/11/17 03:04:38;;;;;;;5.33;1.57;;;11.80;99.90;;;;;;5055999;28;20197;-90
2022/11/17 03:07:18;;;;;;;5.93;1.53;;;11.80;99.90;;;;;;5055611;28;20669;-89
2022/11/17 03:09:53;;;;;;;6.30;1.87;;;11.80;99.90;;;;;;5055629;28;20232;-91
2022/11/17 03:12:24;;;;;;;6.90;2.47;;;11.80;99.90;;;;;;5055997;28;20204;-90
2022/11/17 03:15:04;;;;;;;6.97;1.90;;;11.80;99.90;;;;;;5055489;28;20201;-90
2022/11/17 03:17:40;;;;;;;6.50;1.80;;;11.70;99.90;;;;;;5054550;28;20203;-90
2022/11/17 03:20:16;;;;;;;3.07;1.50;;;11.80;99.90;;;;;;5051147;28;20216;-91
2022/11/17 03:22:47;;;;;;;5.50;1.70;;;11.90;99.90;;;;;;5055644;28;20209;-91
2022/11/17 03:25:21;;;;;;;4.60;1.70;;;11.80;99.90;;;;;;5037827;28;20208;-91
2022/11/17 03:27:52;;;;;;;5.33;1.60;;;11.80;99.90;;;;;;5055226;28;20252;-91
2022/11/17 03:30:21;;;;;;;5.60;2.17;;;11.80;99.90;;;;;;5055412;28;20232;-91
2022/11/17 03:32:52;;;;;;;7.30;1.80;;;11.80;99.90;;;;;;5055424;28;20566;-90
2022/11/17 03:35:26;;;;;;;5.80;1.90;;;11.80;99.90;;;;;;5055429;28;20231;-91
2022/11/17 03:37:57;;;;;;;9.70;2.00;;;11.70;99.90;;;;;;5055013;28;20218;-91
2022/11/17 03:40:28;;;;;;;6.47;1.57;;;11.70;99.90;;;;;;5055588;28;20215;-91
2022/11/17 03:42:58;;;;;;;10.60;2.10;;;11.70;99.90;;;;;;5055033;28;20292;-90
2022/11/17 03:45:29;;;;;;;7.37;1.93;;;11.60;99.90;;;;;;5055081;28;20204;-92
2022/11/17 03:48:00;;;;;;;11.13;2.65;;;11.60;99.90;;;;;;5054159;28;20455;-91
2022/11/17 03:50:31;;;;;;;11.90;2.23;;;11.70;99.90;;;;;;5037757;28;20316;-92
2022/11/17 03:52:59;;;;;;;10.43;2.30;;;11.60;99.90;;;;;;5054871;28;20357;-92
2022/11/17 03:55:30;;;;;;;8.27;2.33;;;11.60;99.90;;;;;;5054358;28;20199;-92
2022/11/17 03:58:03;;;;;;;9.30;2.00;;;11.60;99.90;;;;;;5050438;28;20209;-91
2022/11/17 04:00:33;;;;;;;10.03;2.00;;;11.60;99.90;;;;;;5054912;28;20559;-91
2022/11/17 04:03:00;;;;;;;7.93;2.37;;;11.60;99.90;;;;;;5051327;28;20207;-92
2022/11/17 04:05:27;;;;;;;7.57;1.57;;;11.60;99.90;;;;;;5054754;28;20221;-92
2022/11/17 04:07:54;;;;;;;9.30;2.23;;;11.60;99.90;;;;;;5055019;28;20205;-92
2022/11/17 04:10:24;;;;;;;7.30;1.97;;;11.70;99.90;;;;;;5054749;28;20229;-93
2022/11/17 04:18:18;;;;;;;5.50;1.50;;;11.70;99.90;;;;;;5054330;28;20562;-93
2022/11/17 04:20:46;;;;;;;5.30;1.87;;;11.70;99.90;;;;;;5054693;28;20666;-92
2022/11/17 04:23:15;;;;;;;6.23;1.63;;;11.70;99.90;;;;;;5054984;28;20208;-92
2022/11/17 04:28:38;;;;;;;2.30;0.93;;;11.70;99.90;;;;;;5054663;28;20718;-92
2022/11/17 04:31:12;;;;;;;4.00;1.27;;;11.60;99.90;;;;;;5054697;28;20227;-93
2022/11/17 04:33:40;;;;;;;3.43;1.13;;;11.50;99.90;;;;;;5054952;28;20234;-93
2022/11/17 04:36:09;;;;;;;4.47;1.43;;;11.50;99.90;;;;;;5054792;28;20211;-94
2022/11/17 04:38:35;;;;;;;6.50;1.60;;;11.40;99.90;;;;;;5054786;28;20199;-93
2022/11/17 04:43:52;;;;;;;7.10;1.53;;;11.30;99.90;;;;;;5054204;28;20215;-91
2022/11/17 04:46:21;;;;;;;9.90;1.67;;;11.30;99.90;;;;;;5054673;28;20211;-91
2022/11/17 04:48:49;;;;;;;5.53;1.20;;;11.20;99.90;;;;;;5054377;28;20195;-93
2022/11/17 04:51:17;;;;;;;5.37;1.17;;;11.10;99.90;;;;;;5054626;28;20226;-93
2022/11/17 04:53:45;;;;;;;4.87;1.47;;;11.00;99.90;;;;;;5054680;28;20209;-92
2022/11/17 04:56:12;;;;;;;2.93;1.00;;;11.00;99.90;;;;;;5055961;28;20203;-91
2022/11/17 04:58:41;;;;;;;2.30;0.77;;;11.00;99.90;;;;;;5056099;28;20199;-91
2022/11/17 05:01:15;;;;;;;3.60;1.00;;;11.00;99.90;;;;;;5056698;28;20214;-93
2022/11/17 05:03:45;;;;;;;3.47;1.23;;;10.90;99.90;;;;;;5055397;28;20198;-90
2022/11/17 05:06:14;;;;;;;2.83;0.80;;;10.90;99.90;;;;;;5054772;28;20237;-91
2022/11/17 05:08:42;;;;;;;2.57;1.00;;;10.80;99.90;;;;;;5054765;28;20206;-92
2022/11/17 05:13:54;;;;;;;2.90;0.80;;;10.80;99.90;;;;;;5055329;28;20299;-92
2022/11/17 05:19:10;;;;;;;3.10;0.87;;;10.70;99.90;;;;;;5054317;28;20716;-94
2022/11/17 05:21:37;;;;;;;3.50;1.20;;;10.70;99.90;;;;;;5054422;28;20209;-93
2022/11/17 05:24:04;;;;;;;6.47;1.30;;;10.70;99.90;;;;;;5053489;28;20198;-92
2022/11/17 05:26:32;;;;;;;2.57;0.70;;;10.60;99.90;;;;;;5054120;28;20233;-94
2022/11/17 05:29:03;;;;;;;4.10;1.20;;;10.50;99.90;;;;;;5055632;28;20516;-94
2022/11/17 05:31:30;;;;;;;4.63;1.00;;;10.60;99.90;;;;;;5063382;28;20239;-94
2022/11/17 05:33:58;;;;;;;4.33;0.93;;;10.50;99.90;;;;;;5066398;28;20207;-92
2022/11/17 05:36:27;;;;;;;4.00;1.00;;;10.50;99.90;;;;;;5065610;28;20194;-93
2022/11/17 05:38:55;;;;;;;3.63;0.80;;;10.50;99.90;;;;;;5067033;28;20213;-92
2022/11/17 05:41:22;;;;;;;1.90;0.50;;;10.50;99.90;;;;;;5066687;28;20295;-93
2022/11/17 05:43:49;;;;;;;2.23;0.63;;;10.40;99.90;;;;;;5065195;28;20216;-92
2022/11/17 05:46:17;;;;;;;2.43;0.60;;;10.40;99.90;;;;;;5063406;28;20203;-93
2022/11/17 05:48:44;;;;;;;1.73;0.80;;;10.40;99.90;;;;;;5060662;28;20214;-93
2022/11/17 05:51:11;;;;;;;1.50;0.77;;;10.40;99.90;;;;;;5061095;28;20230;-92
2022/11/17 05:53:41;;;;;;;1.87;0.77;;;10.40;99.90;;;;;;5058147;28;20203;-91
2022/11/17 05:56:18;;;;;;;2.80;0.90;;;10.40;99.90;;;;;;5054985;28;20203;-91
2022/11/17 05:58:49;;;;;;;3.63;0.80;;;10.40;99.90;;;;;;5056205;28;20198;-91
2022/11/17 06:01:19;;;;;;;1.67;0.57;;;10.30;99.90;;;;;;5056338;28;20209;-90
2022/11/17 06:03:51;;;;;;;3.67;0.93;;;10.40;99.90;;;;;;5057001;28;20210;-92
2022/11/17 06:06:18;;;;;;;5.10;1.00;;;10.40;99.90;;;;;;5057065;28;20222;-93
2022/11/17 06:08:46;;;;;;;3.03;0.97;;;10.40;99.90;;;;;;5056937;28;20194;-90
2022/11/17 06:11:14;;;;;;;4.00;0.97;;;10.50;99.90;;;;;;5056481;28;20256;-91
2022/11/17 06:13:41;;;;;;;2.77;0.97;;;10.50;99.90;;;;;;5056298;28;20236;-92
2022/11/17 06:16:11;;;;;;;2.40;0.60;;;10.60;99.90;;;;;;5059262;28;20198;-93
2022/11/17 06:18:43;;;;;;;1.47;0.80;;;10.50;99.90;;;;;;5054167;28;20207;-92
2022/11/17 06:21:11;;;;;;;1.90;0.70;;;10.70;99.90;;;;;;5052995;28;20203;-93
2022/11/17 06:23:38;;;;;;;0.57;0.50;;;10.70;99.90;;;;;;5056467;28;20229;-91
2022/11/17 06:26:09;;;;;;;4.60;1.43;;;10.70;99.90;;;;;;5047534;28;20207;-92
2022/11/17 06:28:37;;;;;;;3.03;0.70;;;10.70;99.90;;;;;;5049320;28;20206;-92
2022/11/17 06:31:05;;;;;;;1.60;1.00;;;10.80;99.90;;;;;;5056902;28;20245;-93
2022/11/17 06:33:35;;;;;;;6.03;1.47;;;10.80;99.90;;;;;;5058156;28;20207;-92
2022/11/17 06:36:05;;;;;;;4.10;1.07;;;10.80;99.90;;;;;;5057587;28;20198;-91
2022/11/17 06:38:34;;;;;;;2.87;0.90;;;10.80;99.90;;;;;;5057434;28;20207;-91
2022/11/17 06:41:02;;;;;;;1.80;0.80;;;10.80;99.90;;;;;;5057602;28;20256;-92
2022/11/17 06:43:30;;;;;;;4.13;0.97;;;10.80;99.90;;;;;;5057141;28;20218;-92
2022/11/17 06:46:02;;;;;;;2.73;1.30;;;10.80;99.90;;;;;;5055674;28;20203;-92
2022/11/17 06:48:34;;;;;;;6.10;1.30;;;10.70;99.90;;;;;;5056854;28;20284;-91
2022/11/17 06:51:03;;;;;;;4.10;1.23;;;10.70;99.90;;;;;;5063680;28;20288;-92
2022/11/17 06:53:30;;;;;;;1.67;0.80;;;10.70;99.90;;;;;;5062396;28;20210;-89
2022/11/17 06:56:02;;;;;;;4.40;1.07;;;10.70;99.90;;;;;;5055776;28;20672;-91
2022/11/17 06:58:32;;;;;;;1.40;0.80;;;10.70;99.90;;;;;;5056614;28;20210;-92
2022/11/17 07:01:04;;;;;;;1.83;1.03;;;10.70;99.90;;;;;;5055991;28;20215;-91
2022/11/17 07:03:31;;;;;;;2.30;0.70;;;10.70;99.90;;;;;;5056475;28;20206;-92
2022/11/17 07:06:00;;;;;;;2.63;0.87;;;10.60;99.90;;;;;;5065631;28;20225;-92
2022/11/17 07:08:27;;;;;;;3.53;0.80;;;10.60;99.90;;;;;;5064333;28;20259;-92
2022/11/17 07:10:55;;;;;;;1.43;0.70;;;10.60;99.90;;;;;;5063957;28;20230;-92
2022/11/17 07:13:22;;;;;;;4.87;1.40;;;10.60;99.90;;;;;;5058786;28;20197;-91
2022/11/17 07:15:51;;;;;;;2.10;0.87;;;10.60;99.90;;;;;;5061043;28;20202;-92
2022/11/17 07:18:19;;;;;;;4.10;1.17;;;10.50;99.90;;;;;;5060346;28;20233;-91
2022/11/17 07:20:46;;;;;;;1.80;0.93;;;10.60;99.90;;;;;;5064043;28;20664;-93
2022/11/17 07:23:14;;;;;;;1.80;0.93;;;10.60;99.90;;;;;;5058003;28;20194;-93
2022/11/17 07:25:41;;;;;;;0.93;0.80;;;10.60;99.90;;;;;;5055718;28;20209;-93
2022/11/17 07:28:07;;;;;;;3.03;1.20;;;10.60;99.90;;;;;;5055770;28;20206;-92
2022/11/17 07:30:35;;;;;;;1.67;0.70;;;10.60;99.90;;;;;;5055765;28;20260;-92
2022/11/17 07:33:03;;;;;;;1.73;0.80;;;10.60;99.90;;;;;;5056362;28;20282;-90
2022/11/17 07:35:30;;;;;;;4.63;1.03;;;10.60;99.90;;;;;;5054765;28;20203;-90
2022/11/17 07:37:58;;;;;;;3.93;0.70;;;10.50;99.90;;;;;;5055584;28;20207;-93
2022/11/17 07:40:25;;;;;;;1.93;0.77;;;10.50;99.90;;;;;;5055590;28;20199;-92
2022/11/17 07:42:52;;;;;;;3.90;1.23;;;10.50;99.90;;;;;;5055180;28;20215;-92
2022/11/17 07:45:20;;;;;;;2.53;0.80;;;10.60;99.90;;;;;;5062629;28;20633;-91
2022/11/17 07:47:53;;;;;;;3.60;0.90;;;10.50;99.90;;;;;;5070090;28;20209;-92
2022/11/17 07:50:29;;;;;;;2.33;0.70;;;10.40;99.90;;;;;;5060789;28;20657;-94
2022/11/17 07:52:57;;;;;;;3.07;0.90;;;10.40;99.90;;;;;;5047443;28;20214;-93
2022/11/17 07:55:38;;;;;;;2.63;0.93;;;10.40;99.90;;;;;;5045148;28;20217;-93
2022/11/17 07:58:07;;;;;;;2.03;1.33;;;10.40;99.90;;;;;;5047125;28;20206;-93
2022/11/17 08:00:35;;;;;;;4.73;0.70;;;10.40;99.90;;;;;;5059796;28;20205;-91
2022/11/17 08:03:03;;;;;;;3.77;0.90;;;10.50;99.90;;;;;;5076340;28;20214;-92
2022/11/17 08:05:34;;;;;;;4.87;1.00;;;10.50;99.90;;;;;;5061484;28;20222;-91
2022/11/17 08:08:01;;;;;;;5.22;1.30;;;10.60;99.90;;;;;;5061376;28;20433;-91
2022/11/17 08:10:30;;;;;;;7.67;1.67;;;10.70;99.90;;;;;;5061586;28;20210;-92
2022/11/17 08:12:58;;;;;;;3.27;0.97;;;10.70;99.90;;;;;;5063540;28;20210;-93
2022/11/17 08:15:28;;;;;;;2.57;1.17;;;10.80;99.90;;;;;;5063781;28;20203;-92
2022/11/17 08:17:56;;;;;;;4.40;1.17;;;10.80;99.90;;;;;;5062130;28;20270;-93
2022/11/17 08:20:26;;;;;;;3.33;0.97;;;10.80;99.90;;;;;;5057897;28;20210;-91
2022/11/17 08:22:58;;;;;;;5.70;0.90;;;10.80;99.90;;;;;;5057814;28;20207;-88
2022/11/17 08:25:27;;;;;;;1.57;0.83;;;10.90;99.90;;;;;;5056952;28;20214;-93
2022/11/17 08:28:00;;;;;;;3.90;1.10;;;10.90;99.90;;;;;;5055008;28;20210;-92
2022/11/17 08:30:27;;;;;;;3.77;1.30;;;10.90;99.90;;;;;;5055321;28;20618;-93
2022/11/17 08:32:55;;;;;;;4.00;0.83;;;10.90;99.90;;;;;;5054713;28;20202;-90
2022/11/17 08:35:24;;;;;;;1.83;0.90;;;11.00;99.90;;;;;;5054756;28;20222;-92
2022/11/17 08:37:51;;;;;;;1.83;0.80;;;11.00;99.90;;;;;;5054469;28;20195;-90
2022/11/17 08:40:26;;;;;;;2.40;0.90;;;11.00;99.90;;;;;;5054153;28;20214;-93
2022/11/17 08:42:54;;;;;;;3.30;0.70;;;11.00;99.90;;;;;;5054494;28;20217;-92
2022/11/17 08:45:22;;;;;;;5.17;1.20;;;11.00;99.90;;;;;;5054189;28;20261;-94
2022/11/17 08:47:51;;;;;;;2.63;0.90;;;11.00;99.90;;;;;;5054421;28;20660;-92
2022/11/17 08:50:21;;;;;;;3.33;0.80;;;11.00;99.90;;;;;;5049169;28;20275;-93
2022/11/17 08:52:48;;;;;;;2.20;0.90;;;11.00;99.90;;;;;;5049432;28;20222;-91
2022/11/17 08:55:18;;;;;;;3.77;0.97;;;11.00;99.90;;;;;;5070766;28;20212;-91
2022/11/17 08:57:46;;;;;;;5.00;1.10;;;11.00;99.90;;;;;;5040123;28;20215;-91
2022/11/17 09:00:20;;;;;;;3.43;1.00;;;11.00;99.90;;;;;;5044757;28;20827;-93
2022/11/17 09:02:53;;;;;;;3.03;0.90;;;11.10;99.90;;;;;;5054089;28;20201;-92
2022/11/17 09:05:20;;;;;;;2.73;0.73;;;11.00;99.90;;;;;;5054174;28;20232;-93
2022/11/17 09:07:48;;;;;;;1.33;0.70;;;11.00;99.90;;;;;;5054177;28;20650;-92
2022/11/17 09:10:15;;;;;;;4.63;0.90;;;11.00;99.90;;;;;;5055423;28;20202;-89
2022/11/17 09:12:43;;;;;;;3.20;1.10;;;10.90;99.90;;;;;;5053867;28;20245;-90
2022/11/17 09:15:12;;;;;;;3.93;1.10;;;10.90;99.90;;;;;;5057010;28;20204;-91
2022/11/17 09:17:42;;;;;;;3.07;1.37;;;11.00;99.90;;;;;;5068789;28;20198;-91
2022/11/17 09:20:09;;;;;;;5.63;1.00;;;11.00;99.90;;;;;;5053917;28;20215;-91
2022/11/17 09:22:37;;;;;;;5.70;1.33;;;11.00;99.90;;;;;;5055966;28;20221;-93
2022/11/17 09:25:07;;;;;;;3.30;0.90;;;11.00;99.90;;;;;;5053876;28;20205;-96
2022/11/17 09:27:34;;;;;;;2.40;1.20;;;11.10;99.90;;;;;;5068305;28;20254;-94
2022/11/17 09:30:01;;;;;;;2.23;0.77;;;11.10;99.90;;;;;;5064411;28;20208;-93
2022/11/17 09:32:30;;;;;;;4.37;1.90;;;11.10;99.90;;;;;;5058691;28;20230;-94
2022/11/17 09:34:59;;;;;;;5.03;1.00;;;11.20;99.90;;;;;;5064106;28;20200;-93
2022/11/17 09:37:26;;;;;;;2.53;1.10;;;11.20;99.90;;;;;;5065832;28;20214;-92
2022/11/17 09:39:53;;;;;;;4.10;1.20;;;11.20;99.90;;;;;;5069120;28;20203;-92
2022/11/17 09:42:22;;;;;;;3.17;1.00;;;11.20;99.90;;;;;;5047679;28;20213;-94
2022/11/17 09:44:57;;;;;;;3.80;0.90;;;11.30;99.90;;;;;;5044723;28;20245;-95
2022/11/17 09:47:35;;;;;;;2.83;0.90;;;11.30;99.90;;;;;;5053419;28;20210;-96
2022/11/17 09:50:18;;;;;;;2.57;1.00;;;11.30;99.90;;;;;;5055995;28;20195;-93
2022/11/17 09:52:56;;;;;;;2.53;0.80;;;11.20;99.90;;;;;;5055117;28;20237;-92
2022/11/17 09:55:31;;;;;;;7.00;1.50;;;11.30;99.90;;;;;;5055035;28;20211;-93
2022/11/17 09:58:09;;;;;;;3.27;1.10;;;11.30;99.90;;;;;;5062728;28;20639;-93
2022/11/17 10:00:39;;;;;;;2.43;0.83;;;11.40;99.90;;;;;;5045179;28;20260;-93
2022/11/17 10:03:18;;;;;;;5.03;1.10;;;11.50;99.90;;;;;;5047651;28;20673;-93
2022/11/17 10:05:49;;;;;;;4.63;0.73;;;11.50;99.90;;;;;;5058279;28;20232;-93
2022/11/17 10:08:20;;;;;;;4.57;1.37;;;11.50;99.90;;;;;;5064005;28;20204;-94
2022/11/17 10:10:49;;;;;;;3.17;1.00;;;11.50;99.90;;;;;;5066323;28;20210;-94
2022/11/17 10:13:24;;;;;;;4.73;1.03;;;11.50;99.90;;;;;;5064950;28;20228;-91
2022/11/17 10:15:56;;;;;;;2.27;0.93;;;11.50;99.90;;;;;;5072342;28;20571;-90
2022/11/17 10:18:24;;;;;;;2.20;0.63;;;11.60;99.90;;;;;;5059012;28;20199;-91
2022/11/17 10:20:55;;;;;;;2.20;1.00;;;11.50;99.90;;;;;;5061028;28;20215;-92
2022/11/17 10:23:36;;;;;;;2.40;0.90;;;11.50;99.90;;;;;;5040408;28;20222;-91
2022/11/17 10:26:09;;;;;;;1.57;0.90;;;11.60;99.90;;;;;;5060482;28;20211;-91
2022/11/17 10:28:39;;;;;;;1.90;0.87;;;11.60;99.90;;;;;;5073149;28;20235;-91
2022/11/17 10:31:13;;;;;;;1.83;0.80;;;11.50;99.90;;;;;;5062270;28;20211;-91
2022/11/17 10:33:50;;;;;;;1.97;0.90;;;11.50;99.90;;;;;;5057718;28;20208;-91
2022/11/17 10:36:20;;;;;;;2.73;1.07;;;11.50;99.90;;;;;;5061509;28;20302;-93
2022/11/17 10:38:51;;;;;;;3.80;1.20;;;11.50;99.90;;;;;;5068796;28;20211;-91
2022/11/17 10:41:28;;;;;;;3.53;1.20;;;11.50;99.90;;;;;;5072928;28;20215;-95
2022/11/17 10:44:03;;;;;;;1.73;0.73;;;11.50;99.90;;;;;;5068879;28;20308;-92
2022/11/17 10:46:34;;;;;;;3.17;0.80;;;11.50;99.90;;;;;;5058380;28;20655;-90
2022/11/17 10:49:04;;;;;;;2.93;1.00;;;11.50;99.90;;;;;;5060858;28;20196;-93
2022/11/17 10:51:33;;;;;;;4.27;1.03;;;11.60;99.90;;;;;;5055578;28;20248;-90
2022/11/17 10:54:06;;;;;;;1.73;1.10;;;11.60;99.90;;;;;;5056085;28;20219;-89
2022/11/17 10:56:39;;;;;;;3.87;1.00;;;11.70;99.90;;;;;;5053938;28;20212;-92
2022/11/17 10:59:20;;;;;;;7.80;1.23;;;11.70;99.90;;;;;;5052921;28;20333;-93
2022/11/17 11:01:51;;;;;;;6.33;1.10;;;11.50;99.90;;;;;;5045971;28;20219;-92
2022/11/17 11:04:32;;;;;;;3.63;0.90;;;11.50;99.90;;;;;;5058155;28;20210;-93
2022/11/17 11:07:10;;;;;;;4.27;1.00;;;11.40;99.90;;;;;;5058461;28;20208;-93
2022/11/17 11:09:44;;;;;;;5.57;1.23;;;11.40;99.90;;;;;;5055644;28;20658;-93
2022/11/17 11:12:16;;;;;;;3.33;1.30;;;11.30;99.90;;;;;;5056605;28;20239;-91
2022/11/17 11:14:58;;;;;;;2.97;0.97;;;11.20;99.90;;;;;;5056960;28;20202;-93
2022/11/17 11:17:28;;;;;;;4.10;0.97;;;11.20;99.90;;;;;;5057714;28;20215;-91
2022/11/17 11:19:59;;;;;;;2.67;0.90;;;11.30;99.90;;;;;;5062089;28;20207;-95
2022/11/17 11:22:35;;;;;;;5.93;1.00;;;11.30;99.90;;;;;;5062107;28;20629;-94
2022/11/17 11:25:13;;;;;;;3.30;1.00;;;11.50;99.90;;;;;;5068143;28;20203;-90
2022/11/17 11:28:03;;;;;;;5.57;1.20;;;11.60;99.90;;;;;;5058913;28;20655;-95
2022/11/17 11:30:47;;;;;;;1.90;0.63;;;11.70;99.90;;;;;;5060204;28;20208;-91
2022/11/17 11:33:31;;;;;;;2.20;0.97;;;11.80;99.90;;;;;;5056859;28;20339;-93
2022/11/17 11:36:13;;;;;;;2.63;0.63;;;12.00;99.90;;;;;;5056849;28;20718;-93
2022/11/17 11:38:56;;;;;;;2.30;0.70;;;12.00;99.90;;;;;;5063551;28;20722;-91
2022/11/17 11:42:01;;;;;;;2.63;0.83;;;12.20;99.90;;;;;;5061827;28;20284;-92
2022/11/17 11:44:41;;;;;;;2.93;0.83;;;12.20;99.90;;;;;;5070986;28;20215;-93
2022/11/17 11:47:20;;;;;;;0.93;0.60;;;12.20;99.90;;;;;;5064320;28;20292;-92
2022/11/17 11:49:50;;;;;;;1.80;1.23;;;12.20;99.90;;;;;;5063540;28;20197;-92
2022/11/17 11:52:21;;;;;;;2.30;0.80;;;12.30;99.90;;;;;;5063039;28;20224;-91
2022/11/17 11:54:54;;;;;;;2.77;1.37;;;12.40;99.90;;;;;;5052198;28;20207;-92
2022/11/17 11:57:26;;;;;;;1.50;0.80;;;12.50;99.90;;;;;;5059987;28;20196;-94
2022/11/17 11:59:58;;;;;;;2.40;0.70;;;12.30;99.90;;;;;;5063049;28;20235;-94
2022/11/17 12:02:31;;;;;;;1.50;0.77;;;12.20;99.90;;;;;;5060266;28;20210;-92
2022/11/17 12:05:12;;;;;;;1.70;0.90;;;12.20;99.90;;;;;;5061287;28;20226;-92
2022/11/17 12:07:47;;;;;;;2.40;1.13;;;12.10;99.90;;;;;;5065662;28;20203;-93
2022/11/17 12:10:23;;;;;;;1.60;0.87;;;12.20;99.90;;;;;;5053728;28;20204;-93
2022/11/17 12:12:51;;;;;;;2.77;0.90;;;12.30;99.90;;;;;;5042116;28;20229;-90
2022/11/17 12:15:35;;;;;;;5.23;1.03;;;12.50;99.90;;;;;;5059049;28;20200;-90
2022/11/17 12:18:06;;;;;;;4.70;1.07;;;12.40;99.90;;;;;;5062075;28;20224;-90
2022/11/17 12:20:56;;;;;;;1.87;0.77;;;12.40;99.90;;;;;;5061769;28;20202;-89
2022/11/17 12:24:05;;;;;;;4.37;1.03;;;12.30;99.90;;;;;;5049059;28;20641;-88
2022/11/17 12:26:33;;;;;;;3.50;0.90;;;12.30;99.90;;;;;;5039868;28;20573;-88
2022/11/17 12:29:29;;;;;;;1.47;0.83;;;12.30;99.90;;;;;;5053314;28;20429;-88
2022/11/17 12:31:57;;;;;;;2.47;1.07;;;12.30;99.90;;;;;;5042492;28;20263;-87
2022/11/17 12:34:26;;;;;;;2.10;0.83;;;12.30;99.90;;;;;;5053754;28;20209;-93
2022/11/17 12:37:21;;;;;;;2.53;0.70;;;12.30;99.90;;;;;;5054345;28;20202;-91
2022/11/17 12:40:08;;;;;;;2.63;0.70;;;12.40;99.90;;;;;;5053723;28;20206;-92
2022/11/17 12:42:36;;;;;;;1.17;0.70;;;12.30;99.90;;;;;;5054025;28;20235;-92
2022/11/17 12:45:05;;;;;;;1.13;0.60;;;12.30;99.90;;;;;;5053758;28;20563;-91
2022/11/17 12:47:33;;;;;;;2.93;0.83;;;12.30;99.90;;;;;;5053569;28;20208;-93
2022/11/17 12:50:41;;;;;;;2.33;0.90;;;12.30;99.90;;;;;;5049283;28;20206;-92
2022/11/17 12:53:32;;;;;;;2.83;0.77;;;12.30;99.90;;;;;;5042204;28;20237;-91
2022/11/17 12:56:31;;;;;;;1.83;0.70;;;12.30;99.90;;;;;;5042675;28;20205;-89
2022/11/17 12:59:34;;;;;;;2.30;1.00;;;12.30;99.90;;;;;;5045503;28;20209;-89
2022/11/17 13:02:19;;;;;;;3.80;0.90;;;12.30;99.90;;;;;;5026445;28;20213;-90
2022/11/17 13:04:49;;;;;;;2.00;0.90;;;12.40;99.90;;;;;;5046437;28;20719;-93
2022/11/17 13:07:21;;;;;;;3.80;0.70;;;12.40;99.90;;;;;;5047588;28;20202;-90
2022/11/17 13:09:55;;;;;;;4.50;1.10;;;12.40;99.90;;;;;;5039161;28;20677;-90
2022/11/17 13:12:25;;;;;;;1.43;0.80;;;12.40;99.90;;;;;;5047170;28;20228;-89
2022/11/17 13:14:54;;;;;;;0.60;0.60;;;12.40;99.90;;;;;;5039850;28;20201;-90
2022/11/17 13:17:25;;;;;;;5.17;0.80;;;12.50;99.90;;;;;;5053507;28;20602;-89
2022/11/17 13:19:59;;;;;;;1.80;0.90;;;12.60;99.90;;;;;;5053353;28;20206;-89
2022/11/17 13:22:26;;;;;;;3.10;0.97;;;12.60;99.90;;;;;;5050248;28;20301;-88
2022/11/17 13:24:53;;;;;;;2.47;0.93;;;12.70;99.90;;;;;;5049931;28;20205;-90
2022/11/17 13:27:26;;;;;;;4.05;1.38;;;12.80;99.90;;;;;;5052585;28;20460;-89
2022/11/17 13:30:12;;;;;;;3.03;0.60;;;12.90;99.90;;;;;;5052797;28;20225;-89
2022/11/17 13:32:40;;;;;;;1.20;0.80;;;13.00;99.90;;;;;;5042697;28;20230;-88
2022/11/17 13:35:19;;;;;;;1.30;0.53;;;13.00;99.90;;;;;;5057687;28;20400;-88